createdAt,value
2022-12-09T00:03:23.442Z,42.00
2022-12-09T00:09:26.557Z,44.25
2022-12-09T00:15:28.981Z,46.00
2022-12-09T00:21:33.041Z,44.75
2022-12-09T00:27:35.207Z,42.00
2022-12-09T00:33:37.756Z,43.75
2022-12-09T00:39:40.101Z,46.00
2022-12-09T00:45:42.950Z,39.25
2022-12-09T00:51:46.425Z,42.75
2022-12-09T00:57:48.667Z,41.00
2022-12-09T01:03:51.031Z,44.75
2022-12-09T01:09:54.167Z,42.00
2022-12-09T01:15:56.534Z,20.50
2022-12-09T01:21:59.627Z,35.25
2022-12-09T01:28:02.186Z,40.50
2022-12-09T01:34:04.512Z,29.00
2022-12-09T01:40:12.006Z,41.00
2022-12-09T01:46:15.794Z,27.25
2022-12-09T01:52:24.268Z,39.00
2022-12-09T01:58:27.222Z,36.25
2022-12-09T02:04:32.890Z,38.25
2022-12-09T02:10:42.865Z,39.50
2022-12-09T02:17:14.594Z,42.00
2022-12-09T02:23:26.950Z,35.75
2022-12-09T02:29:57.991Z,40.00
2022-12-09T02:36:09.817Z,38.25
2022-12-09T02:42:20.645Z,41.25
2022-12-09T02:48:33.437Z,35.75
2022-12-09T02:54:40.244Z,34.25
2022-12-09T03:00:43.288Z,38.25
2022-12-09T03:06:53.272Z,40.50
2022-12-09T03:13:03.973Z,38.50
2022-12-09T03:19:14.156Z,42.25
2022-12-09T03:25:24.565Z,30.25
2022-12-09T03:31:32.656Z,27.00
2022-12-09T03:37:38.985Z,41.50
2022-12-09T03:43:48.205Z,31.25
2022-12-09T03:49:50.886Z,35.50
2022-12-09T03:56:09.071Z,41.25
2022-12-09T04:02:12.607Z,29.75
2022-12-09T04:08:15.214Z,33.50
2022-12-09T04:14:17.802Z,34.75
2022-12-09T04:20:20.461Z,41.75
2022-12-09T04:26:24.364Z,40.50
2022-12-09T04:32:26.668Z,34.00
2022-12-09T04:38:29.067Z,33.00
2022-12-09T04:44:32.912Z,29.00
2022-12-09T04:50:35.378Z,39.75
2022-12-09T04:56:37.579Z,34.50
2022-12-09T05:02:39.755Z,22.50
2022-12-09T05:08:42.767Z,33.75
2022-12-09T05:14:45.938Z,40.50
2022-12-09T05:20:48.331Z,36.00
2022-12-09T05:26:53.052Z,28.25
2022-12-09T05:32:56.092Z,33.33
2022-12-09T05:38:58.536Z,39.50
2022-12-09T05:45:03.047Z,35.25
2022-12-09T05:51:18.707Z,40.75
2022-12-09T05:57:21.228Z,40.75
2022-12-09T06:03:24.653Z,37.25
2022-12-09T06:09:27.975Z,39.50
2022-12-09T06:15:33.497Z,39.00
2022-12-09T06:21:40.342Z,38.75
2022-12-09T06:27:42.811Z,38.50
2022-12-09T06:33:54.639Z,38.00
2022-12-09T06:39:58.345Z,32.00
2022-12-09T06:46:02.183Z,31.75
2022-12-09T06:52:05.219Z,38.50
2022-12-09T06:58:09.492Z,37.25
2022-12-09T07:04:14.796Z,38.00
2022-12-09T07:10:18.435Z,33.50
2022-12-09T07:16:21.251Z,43.25
2022-12-09T07:22:23.862Z,40.25
2022-12-09T07:28:27.560Z,36.00
2022-12-09T07:34:30.277Z,33.25
2022-12-09T07:40:32.797Z,42.75
2022-12-09T07:46:37.180Z,39.25
2022-12-09T07:52:39.730Z,38.75
2022-12-09T07:58:43.901Z,45.25
2022-12-09T08:04:46.223Z,42.25
2022-12-09T08:10:50.053Z,41.25
2022-12-09T08:16:53.312Z,45.00
2022-12-09T08:22:58.530Z,40.75
2022-12-09T08:29:01.874Z,40.00
2022-12-09T08:35:06.673Z,51.00
2022-12-09T08:41:35.888Z,54.50
2022-12-09T08:47:38.688Z,45.75
2022-12-09T08:53:42.201Z,44.25
2022-12-09T08:59:53.171Z,38.25
2022-12-09T09:06:08.760Z,46.50
2022-12-09T09:12:18.813Z,41.50
2022-12-09T09:18:24.245Z,36.75
2022-12-09T09:24:26.823Z,39.25
2022-12-09T10:33:00.523Z,42.50
2022-12-09T10:39:06.002Z,46.25
2022-12-09T10:45:10.088Z,47.25
2022-12-09T10:51:20.873Z,45.00
2022-12-09T10:57:27.442Z,40.75
2022-12-09T11:03:32.418Z,49.00
2022-12-09T11:09:39.748Z,40.25
2022-12-09T11:15:46.149Z,45.25
2022-12-09T11:21:48.583Z,43.25
2022-12-09T11:28:21.623Z,49.75
2022-12-09T11:34:31.031Z,51.25
2022-12-09T11:40:34.919Z,41.50
2022-12-09T11:46:37.981Z,51.50
2022-12-09T11:52:43.576Z,44.50
2022-12-09T11:58:50.508Z,48.50
2022-12-09T12:05:01.949Z,53.00
2022-12-09T12:11:14.907Z,46.00
2022-12-09T12:17:26.025Z,52.25
2022-12-09T12:23:45.146Z,62.50
2022-12-09T12:30:10.098Z,52.25
2022-12-09T12:36:12.210Z,55.50
2022-12-09T12:42:32.739Z,54.33
2022-12-09T12:49:08.897Z,57.75
2022-12-09T12:55:19.608Z,53.00
2022-12-09T13:01:39.073Z,54.00
2022-12-09T13:07:59.721Z,57.50
2022-12-09T13:14:13.081Z,54.25
2022-12-09T13:20:49.384Z,54.50
2022-12-09T13:26:58.787Z,52.00
2022-12-09T13:33:22.512Z,53.00
2022-12-09T13:39:39.935Z,55.00
2022-12-09T13:45:51.129Z,51.00
2022-12-09T13:51:58.460Z,54.25
2022-12-09T13:58:15.968Z,54.50
2022-12-09T14:04:24.849Z,51.50
2022-12-09T14:10:45.466Z,53.75
2022-12-09T14:16:47.460Z,56.00
2022-12-09T14:23:05.058Z,53.75
2022-12-09T14:29:08.173Z,50.75
2022-12-09T14:35:13.758Z,52.50
2022-12-09T14:41:30.369Z,51.50
2022-12-09T14:47:39.699Z,58.25
2022-12-09T14:53:42.678Z,62.50
2022-12-09T14:59:54.190Z,60.75
2022-12-09T15:06:02.826Z,66.00
2022-12-09T15:12:11.768Z,64.25
2022-12-09T15:18:25.774Z,66.00
2022-12-09T15:24:48.913Z,67.00
2022-12-09T15:31:02.389Z,66.25
2022-12-09T15:37:06.425Z,67.00
2022-12-09T15:43:13.187Z,67.00
2022-12-09T15:49:21.373Z,66.25
2022-12-09T15:55:36.931Z,69.00
2022-12-09T16:01:39.014Z,62.75
2022-12-09T16:07:59.018Z,75.00
2022-12-09T16:14:01.628Z,75.50
2022-12-09T16:20:40.123Z,72.75
2022-12-09T16:26:47.065Z,86.25
2022-12-09T16:32:54.504Z,80.50
2022-12-09T16:39:09.331Z,73.50
2022-12-09T16:45:30.453Z,71.50
2022-12-09T16:51:33.804Z,63.75
2022-12-09T16:57:37.626Z,63.00
2022-12-09T17:04:04.494Z,65.50
2022-12-09T17:10:08.338Z,67.00
2022-12-09T17:16:10.976Z,67.50
2022-12-09T17:22:14.336Z,66.50
2022-12-09T17:28:17.343Z,69.00
2022-12-09T17:34:20.308Z,68.75
2022-12-09T17:40:22.613Z,66.00
2022-12-09T17:46:24.927Z,64.50
2022-12-09T17:52:27.211Z,69.25
2022-12-09T17:58:29.193Z,67.50
2022-12-09T18:04:32.305Z,67.25
2022-12-09T18:10:34.891Z,61.50
2022-12-09T18:16:39.159Z,66.50
2022-12-09T18:22:42.354Z,70.25
2022-12-09T18:28:47.098Z,73.25
2022-12-09T18:34:49.461Z,70.75
2022-12-09T18:41:03.738Z,76.25
2022-12-09T18:47:06.843Z,71.00
2022-12-09T18:53:13.303Z,70.75
2022-12-09T18:59:16.864Z,70.00
2022-12-09T19:05:19.347Z,64.50
2022-12-09T19:11:22.908Z,62.75
2022-12-09T19:17:25.796Z,59.25
2022-12-09T19:23:27.871Z,58.25
2022-12-09T19:29:29.882Z,52.00
2022-12-09T19:35:32.915Z,38.25
2022-12-09T19:41:37.328Z,56.00
2022-12-09T19:47:40.725Z,46.50
2022-12-09T19:53:44.417Z,45.25
2022-12-09T19:59:47.541Z,42.50
2022-12-09T20:05:52.830Z,44.50
2022-12-09T20:11:56.211Z,44.75
2022-12-09T20:17:58.705Z,34.25
2022-12-09T20:24:02.675Z,40.25
2022-12-09T20:30:07.310Z,41.25
2022-12-09T20:36:16.460Z,46.25
2022-12-09T20:42:21.126Z,46.00
2022-12-09T20:48:23.915Z,42.00
2022-12-09T20:54:26.243Z,44.75
2022-12-09T21:00:29.653Z,46.00
2022-12-09T21:06:36.050Z,49.50
2022-12-09T21:12:41.666Z,47.50
2022-12-09T21:18:44.344Z,44.00
2022-12-09T21:24:47.450Z,42.75
2022-12-09T21:30:49.530Z,43.25
2022-12-09T21:36:53.875Z,37.00
2022-12-09T21:42:57.436Z,38.75
2022-12-09T21:49:04.271Z,41.25
2022-12-09T21:55:10.667Z,36.50
2022-12-09T22:01:17.973Z,41.50
2022-12-09T22:07:20.488Z,45.75
2022-12-09T22:13:23.267Z,46.75
2022-12-09T22:19:27.004Z,44.00
2022-12-09T22:25:29.295Z,42.50
2022-12-09T22:31:35.962Z,49.50
2022-12-09T22:37:45.360Z,49.00
2022-12-09T22:43:53.401Z,34.50
2022-12-09T22:49:56.763Z,41.00
2022-12-09T22:55:59.279Z,48.75
2022-12-09T23:02:04.856Z,42.25
2022-12-09T23:08:08.985Z,44.25
2022-12-09T23:14:14.806Z,42.00
2022-12-09T23:20:17.575Z,42.00
2022-12-09T23:26:24.357Z,49.25
2022-12-09T23:32:26.800Z,47.25
2022-12-09T23:38:29.907Z,47.00
2022-12-09T23:44:32.453Z,43.00
2022-12-09T23:50:34.552Z,52.75
2022-12-09T23:56:44.563Z,48.00
